Lucas, Kansas
Current Conditions -  °F | °C
As of 1:53 PM on Sunday 25 Jan 2015 (Local Time) from KRSL Reporting Station
Scattered Clouds Scattered Clouds  
Wind Chill: 51°   Ceiling: Unl
Heat Index: 51°   Visibility: 10mi
Dew Point: 27°   Wind: 23mph
Humidity: 39%   Direction: 320°NW
Pressure: 30.05"   Gusts: 32mph
Location:  39.06°N, 98.54°W
Report Text: KRSL 251953Z AUTO 32020G28KT 10SM SCT048 11/M03 A3005 RMK AO2 PK WND 35034/1858 SLP181 T01061028
Loading
Personal Weather Stations






























Interactive Weather Map New forecast layout! Learn more

10-Day Weather Forecast

Advertisements
Track Severe Weather on mobile